AirNav   Pilot Hours Calculator
 
 693 users online  

CA55 Mission Hospital Helistop
Mission Viejo, California, USA

GOING TO MISSION VIEJO?


FAA INFORMATION EFFECTIVE 07 NOVEMBER 2019

Location

FAA Identifier: CA55
Lat/Long: 33-33-38.8800N 117-39-58.1500W
33-33.648000N 117-39.969167W
33.5608000,-117.6661528
(estimated)
Elevation: 460 ft. / 140 m (estimated)
Variation: 14E (1985)
From city: 2 miles S of MISSION VIEJO, CA
Time zone: UTC -8 (UTC -7 during Daylight Saving Time)
Zip code: 92691

Heliport Operations

Heliport use: Private use, MEDICAL.
Activation date: 01/1990
Control tower: no
ARTCC: LOS ANGELES CENTER
FSS: HAWTHORNE FLIGHT SERVICE STATION
Attendance: UNATNDD
Wind indicator: yes
Segmented circle: no
Lights: FOR PERIMETER AND FLOOD LGTS CALL 949-364-1400, EXTN 0.

Heliport Communications

WX ASOS at SNA (12 nm NW): PHONE 714-424-0590

Nearby radio navigation aids

VOR radial/distance  VOR name  Freq  Var
ELBr141/7.6EL TORO VOR/DME117.2014E
PDZr183/22.5PARADISE VORTAC112.2015E
OCNr312/22.9OCEANSIDE VORTAC115.3015E
SLIr110/23.6SEAL BEACH VORTAC115.7015E
RALr191/(26.0)RIVERSIDE VOR112.4014E
HDFr228/(27.3)HOMELAND VOR113.4014E
POMr154/31.6POMONA VORTAC110.4015E
SXCr059/39.3SANTA CATALINA VORTAC114.1515E

Heliport Services

Runway Information

Helipad H1

Dimensions: 52 x 96 ft. / 16 x 29 m
Surface: asphalt/concrete
Runway edge lights: PERI
AND FLOOD LGTS.
Latitude: 33-33.648000N
Longitude: 117-39.969167W
Elevation: 460.0 ft.
Traffic pattern: leftleft

Heliport Ownership and Management from official FAA records

Ownership: Privately-owned
Owner: MISSION HOSP REGIONAL MED CTR
27700 MEDICAL CENTER RD
MISSION VIEJO, CA 92691
Phone 949-364-1400
Manager: JOE ORTIZ, FAC DIR
27700 MEDICAL CENTER RD
MISSION VIEJO, CA 92691
Phone 949-364-7784

Additional Remarks

FOR CD CTC LOS ANGELES ARTCC AT 661-575-2079.

Instrument Procedures

There are no published instrument procedures at CA55.

Some nearby airports with instrument procedures:

KSNA - John Wayne-Orange County Airport (12 nm NW)
KAJO - Corona Municipal Airport (20 nm N)
KNFG - Camp Pendleton MCAS (Munn Field) Airport (22 nm SE)
KSLI - Los Alamitos Army Airfield (24 nm NW)
L18 - Fallbrook Community Airpark (24 nm SE)
 
Loc | Ops | Rwys | IFR | FBO | Links
Com | Nav | Svcs | Stats | Notes

San Bernardino International Airport Authority
 
Area around CA55 (Mission Hospital Helistop)
 
Road maps at: MapQuest Bing Google
 
Aerial photo
No photo
 
Sectional chart

 
Airport distance calculator
Flying to Mission Hospital Helistop? Find the distance to fly.

From to CA55

Sunrise and sunset
Times for 18-Nov-2019
 Local
(UTC-8)
 Zulu
(UTC)
Morning civil twilight06:0014:00
Sunrise06:2614:26
Sunset16:4600:46
Evening civil twilight17:1201:12

Current date and time
Zulu (UTC)  19-Nov-2019 04:50:11
Local (UTC-8)  18-Nov-2019 20:50:11
 
METAR
KSNA 
12nm NW 
190353Z 20005KT 10SM BKN250 22/07 A2983 RMK AO2 SLP100 T02170072
KNXF 
20nm SE 
190356Z AUTO 13007KT 10SM CLR 19/14 A2986 RMK AO2 SLP197 T01940144 $
KAJO 
20nm N 
190356Z AUTO 10SM CLR 18/02 RMK AO2 SLPNO T01830022 $
KSLI 
22nm NW 
190358Z 19007KT 10SM BKN200 19/05 A2984 RMK AO2A SLP108 T01880053
KNFG 
24nm SE 
190355Z 00000KT 10SM SCT200 17/07 A2987 RMK AO2 SLP112 T01670067 $
TAF
KSNA 
12nm NW 
181738Z 1818/1918 VRB04KT P6SM SKC FM182000 22007KT P6SM SCT200 FM190200 VRB04KT P6SM BKN150
NOTAMs
Click for the latest NOTAMs
NOTAMs are issued by the DoD/FAA and will open in a separate window not controlled by AirNav.

 

 
 

Would you like to see your business listed on this page?

 If your business provides an interesting product or service to pilots, flight crews, aircraft, or users of the Mission Hospital Helistop, you should consider listing it here.  To start the listing process, click on the button below
 
Add a business
 

Other Pages about Mission Hospital Helistop

Update a link
 
Copyright © AirNav, LLC. All rights reserved. Privacy Policy  Contact